Nederlandse vliegveldverwachtingen (TAF)

Luchtvaartmeteorologische informatie voor operationeel gebruik en vluchtvoorbereiding is beschikbaar op www.luchtvaartmeteo.nl.

ZCZC
FC280900 EHGR     GILZE-RIJEN/GILZE-RIJEN   NLD   14 m.
TAF EHGR 280900Z NIL=

ZCZC
FC280900 EHWO     WOENSDRECHT/WOENSDRECHT   NLD   19 m.
TAF EHWO 280900Z NIL=

ZCZC
FT292300 EHEH     EINDHOVEN/EINDHOVEN   NLD   22 m.
TAF EHEH 292348Z 3000/0106 VRB02KT 3500 BR NSC
    TEMPO 3000/3006 1500 BR MIFG
    PROB40 TEMPO 3000/3006 1000 MIFG
    BECMG 3006/3009 21007KT FEW012 OVC018
    BECMG 3010/3012 BKN012 OVC015
    BECMG 3014/3016 22010KT 4000 RADZ BKN006 OVC010
    PROB40 TEMPO 3015/3022 2000 DZ BKN002 OVC006
    BECMG 3022/0101 SCT020 BKN030
    TEMPO 0100/0106 4500 SHRA FEW018CB BKN020=

ZCZC
FC300100 EHVK RRA VOLKEL/VOLKEL   NLD   21 m.
TAF EHVK 300113Z 3002/3014 VRB02KT 3500 BR NSC
    TEMPO 3002/3006 1500 BR MIFG
    PROB40 TEMPO 3000/3006 1000 MIFG
    BECMG 3006/3009 21007KT FEW012 OVC018
    BECMG 3010/3012 BKN007 OVC010=

ZCZC
FC300100 EHKD RRC DE KOOY/DE KOOY   NLD   1 m.
TAF EHKD 300124Z 3002/3014 18005KT 6000 NSC
    BECMG 3005/3007 BKN012
    TEMPO 3007/3012 4000 RADZ SCT008 OVC012
    BECMG 3010/3012 25012KT=

ZCZC
FC300100 EHLW CCA LEEUWARDEN/LEEUWARDEN   NLD   1 m.
TAF COR EHLW 300131Z 3002/3014 18005KT CAVOK
    TEMPO 3002/3005 VRB03KT 4500 BR MIFG
    BECMG 3007/3009 BKN012
    TEMPO 3008/3014 4000 RADZ SCT008 OVC012
    BECMG 3012/3014 21010KT=

ZCZC
FT300500 EHAM     AMSTERDAM/SCHIPHOL   NLD   -3 m.
TAF EHAM 300514Z 3006/0112 19008KT 4000 BR -DZRA BKN005
    PROB30 3006/3008 2500 BKN010
    TEMPO 3008/3015 2500 DZ BKN003
    BECMG 3014/3017 25010KT 6000 RADZ
    BECMG 3018/3021 33016KT 9999 NSW SCT020
    PROB40 TEMPO 3021/0110 34020G30KT 6000 SHRA SCT018CB
    BKN030=

ZCZC
FT300500 EHBK     MAASTRICHT/MAASTRICHT-AACHEN   NLD   114 m.
TAF EHBK 300519Z 3006/0112 23006KT 4000 BR BKN007
    PROB40 TEMPO 3007/3009 6000 NSW BKN012
    BECMG 3010/3012 21010KT -DZ
    BECMG 3014/3017 4000 RADZ
    BECMG 3017/3020 2000 DZRA BKN003
    BECMG 0100/0103 28008KT 9999 NSW SCT020
    TEMPO 0103/0112 7000 RA SHRA FEW014CB=

ZCZC
FT300500 EHGG     GRONINGEN/EELDE   NLD   5 m.
TAF EHGG 300519Z 3006/0112 22004KT 6000 NSC
    PROB40 3006/3008 4000 BR
    BECMG 3009/3012 20010KT 4000 -DZ BKN007
    BECMG 3012/3015 2000 DZRA BKN003
    BECMG 3021/3024 30013KT 9999 NSW SCT020
    PROB40 TEMPO 3021/0112 36016G26KT 7000 SHRA FEW014CB=

ZCZC
FT300500 EHLE     LELYSTAD/LELYSTAD   NLD   -3 m.
TAF EHLE 300516Z 3006/0112 19008KT 4000 BR NSC
    BECMG 3006/3009 BR -DZRA BKN005
    TEMPO 3009/3016 2500 DZ BKN003
    BECMG 3015/3018 25010KT 6000 RADZ
    BECMG 3019/3022 33016KT 9999 NSW SCT020
    PROB40 TEMPO 3022/0112 34020G30KT 6000 SHRA SCT018CB
    BKN030=

ZCZC
FT300500 EHRD     ROTTERDAM/THE HAGUE AIRPORT   NLD   -5 m.
TAF EHRD 300515Z 3006/0112 19008KT 4000 BR -DZRA BKN005
    PROB30 3006/3008 2500 BKN010
    TEMPO 3008/3015 2500 DZ BKN003
    BECMG 3014/3017 25010KT 6000 RADZ
    BECMG 3018/3021 33016KT 9999 NSW SCT020
    PROB40 TEMPO 3021/0110 34020G30KT 6000 SHRA SCT018CB
    BKN030=

30/11/2020 06.30 uur LT